Time;durP1;ratioP1;P1;durP2;ratioP2;P2;SDS_P1;SDS_P2;PMS_P1;PMS_P2;Temp;Humidity;BMP_temperature;BMP_pressure;BME280_temperature;BME280_humidity;BME280_pressure;Samples;Min_cycle;Max_cycle;Signal;HPM_P1;HPM_P2
2024/01/28 00:01:44;;;;;;;4.13;1.15;;;3.10;99.90;;;;;;4970270;28;20042;-79
2024/01/28 00:04:12;;;;;;;8.10;2.00;;;3.50;99.90;;;;;;4972273;28;20055;-80
2024/01/28 00:06:41;;;;;;;9.32;2.10;;;3.50;99.90;;;;;;4974216;28;20042;-80
2024/01/28 00:09:10;;;;;;;7.10;1.40;;;3.50;99.90;;;;;;4976312;28;20068;-80
2024/01/28 00:11:39;;;;;;;6.72;1.55;;;3.50;99.90;;;;;;4959247;28;20028;-79
2024/01/28 00:14:09;;;;;;;5.63;1.67;;;3.70;99.90;;;;;;4971791;28;20035;-79
2024/01/28 00:16:39;;;;;;;4.57;1.45;;;2.50;99.90;;;;;;4974137;28;20043;-79
2024/01/28 00:19:08;;;;;;;6.88;1.88;;;4.80;99.90;;;;;;4973532;28;20569;-80
2024/01/28 00:21:38;;;;;;;9.18;1.38;;;3.50;99.90;;;;;;4969285;28;20047;-82
2024/01/28 00:24:07;;;;;;;6.85;1.70;;;3.80;99.90;;;;;;4975157;28;20058;-81
2024/01/28 00:26:40;;;;;;;8.32;2.78;;;3.40;99.90;;;;;;4954431;29;20052;-82
2024/01/28 00:29:10;;;;;;;;;;;3.50;99.90;;;;;;4956720;28;20040;-80
2024/01/28 00:31:38;;;;;;;8.32;1.90;;;3.40;99.90;;;;;;4952736;29;19913;-79
2024/01/28 00:34:07;;;;;;;9.63;1.17;;;3.40;99.90;;;;;;4950992;29;20946;-79
2024/01/28 00:36:39;;;;;;;10.38;2.03;;;3.40;99.90;;;;;;4949625;28;20070;-79
2024/01/28 00:39:08;;;;;;;4.93;1.10;;;3.50;99.90;;;;;;4970467;28;20032;-82
2024/01/28 00:41:37;;;;;;;7.43;2.10;;;3.50;99.90;;;;;;4958735;29;20059;-80
2024/01/28 00:44:06;;;;;;;8.90;2.17;;;3.50;99.90;;;;;;4958063;28;20050;-78
2024/01/28 00:46:36;;;;;;;6.25;1.52;;;3.50;99.90;;;;;;4959047;28;20031;-79
2024/01/28 00:49:05;;;;;;;6.72;1.17;;;2.50;99.90;;;;;;4959373;29;20039;-82
2024/01/28 00:51:35;;;;;;;7.93;1.95;;;3.50;99.90;;;;;;4956689;29;20062;-80
2024/01/28 00:54:05;;;;;;;6.93;1.25;;;3.40;99.90;;;;;;4958369;29;20028;-78
2024/01/28 00:56:37;;;;;;;8.75;1.70;;;3.40;99.90;;;;;;4960572;29;20084;-81
2024/01/28 00:59:06;;;;;;;7.25;1.65;;;3.40;99.90;;;;;;4954687;28;20031;-80
2024/01/28 01:01:36;;;;;;;6.63;1.40;;;3.50;99.90;;;;;;4959717;28;20038;-82
2024/01/28 01:04:04;;;;;;;4.38;1.30;;;3.50;99.90;;;;;;4960590;29;20579;-79
2024/01/28 01:06:33;;;;;;;5.78;1.17;;;3.40;99.90;;;;;;4959400;28;20028;-79
2024/01/28 01:09:03;;;;;;;7.28;1.58;;;3.40;99.90;;;;;;4958207;29;20047;-80
2024/01/28 01:11:32;;;;;;;3.20;1.42;;;3.30;99.90;;;;;;4952676;29;20063;-79
2024/01/28 01:14:01;;;;;;;11.25;1.35;;;3.40;99.90;;;;;;4958610;29;20035;-79
2024/01/28 01:16:29;;;;;;;6.53;1.35;;;3.40;99.90;;;;;;4957132;29;20039;-79
2024/01/28 01:18:59;;;;;;;7.85;0.80;;;3.30;99.90;;;;;;4949289;29;20410;-80
2024/01/28 01:21:28;;;;;;;11.57;2.17;;;3.30;99.90;;;;;;4968730;28;20058;-79
2024/01/28 01:23:57;;;;;;;8.75;1.50;;;3.20;99.90;;;;;;4967452;28;20048;-79
2024/01/28 01:26:25;;;;;;;9.20;1.83;;;3.20;99.90;;;;;;4962495;28;20074;-80
2024/01/28 01:28:54;;;;;;;6.13;1.58;;;3.50;99.90;;;;;;4955505;29;20087;-79
2024/01/28 01:31:23;;;;;;;5.13;1.73;;;3.20;99.90;;;;;;4956635;29;20044;-79
2024/01/28 01:33:51;;;;;;;10.20;1.55;;;3.10;99.90;;;;;;4949443;29;20483;-79
2024/01/28 01:36:21;;;;;;;5.95;1.95;;;3.20;99.90;;;;;;4952216;29;20080;-79
2024/01/28 01:38:50;;;;;;;7.18;1.15;;;3.10;99.90;;;;;;4966112;28;20047;-79
2024/01/28 01:41:18;;;;;;;5.22;1.08;;;3.10;99.90;;;;;;4949315;29;20040;-79
2024/01/28 01:43:47;;;;;;;5.93;0.93;;;3.10;99.90;;;;;;4969418;28;20016;-79
2024/01/28 01:46:15;;;;;;;4.75;1.63;;;3.10;99.90;;;;;;4961791;29;20060;-80
2024/01/28 01:48:44;;;;;;;4.80;1.23;;;3.10;99.90;;;;;;4954929;29;20050;-79
2024/01/28 01:51:13;;;;;;;6.90;1.63;;;3.00;99.90;;;;;;4951824;29;20043;-79
2024/01/28 01:53:44;;;;;;;3.55;1.13;;;3.10;99.90;;;;;;4954562;29;20044;-79
2024/01/28 01:56:13;;;;;;;9.07;1.55;;;3.00;99.90;;;;;;4954641;29;20079;-78
2024/01/28 01:58:42;;;;;;;5.22;1.23;;;3.20;99.90;;;;;;4968941;28;20107;-80
2024/01/28 02:01:12;;;;;;;3.30;0.88;;;3.00;99.90;;;;;;4961483;29;20056;-79
2024/01/28 02:03:40;;;;;;;6.38;1.40;;;2.90;99.90;;;;;;4954838;29;21895;-79
2024/01/28 02:06:10;;;;;;;7.00;0.90;;;2.90;99.90;;;;;;4965827;28;20048;-79
2024/01/28 02:08:39;;;;;;;4.80;1.10;;;2.90;99.90;;;;;;4947390;29;20067;-79
2024/01/28 02:11:09;;;;;;;11.07;1.40;;;2.90;99.90;;;;;;4954320;29;20052;-79
2024/01/28 02:13:39;;;;;;;7.53;1.73;;;2.80;99.90;;;;;;4968642;28;20123;-80
2024/01/28 02:16:07;;;;;;;9.82;1.58;;;2.80;99.90;;;;;;4966027;28;20100;-79
2024/01/28 02:18:36;;;;;;;8.57;1.80;;;2.80;99.90;;;;;;4947932;29;20044;-79
2024/01/28 02:21:05;;;;;;;6.15;1.67;;;2.70;99.90;;;;;;4945358;29;20077;-78
2024/01/28 02:23:35;;;;;;;7.97;1.45;;;3.10;99.90;;;;;;4944977;29;20142;-79
2024/01/28 02:26:04;;;;;;;9.90;1.90;;;2.70;99.90;;;;;;4945714;29;20052;-79
2024/01/28 02:28:33;;;;;;;6.35;1.30;;;2.70;99.90;;;;;;4946766;29;20044;-79
2024/01/28 02:31:01;;;;;;;7.88;1.20;;;2.70;99.90;;;;;;4942763;29;20058;-79
2024/01/28 02:33:30;;;;;;;5.65;1.15;;;1.20;99.90;;;;;;4945585;29;20075;-79
2024/01/28 02:35:58;;;;;;;6.05;1.52;;;1.10;99.90;;;;;;4966592;28;20150;-79
2024/01/28 02:38:27;;;;;;;4.10;1.23;;;2.70;99.90;;;;;;4947449;29;20056;-79
2024/01/28 02:40:57;;;;;;;5.47;1.10;;;2.70;99.90;;;;;;4944707;29;20056;-79
2024/01/28 02:43:26;;;;;;;4.93;0.98;;;2.60;99.90;;;;;;4945137;29;20128;-80
2024/01/28 02:45:57;;;;;;;7.90;1.17;;;1.80;99.90;;;;;;4951267;29;20051;-79
2024/01/28 02:48:26;;;;;;;5.90;1.20;;;2.60;99.90;;;;;;4965737;28;20048;-79
2024/01/28 02:50:55;;;;;;;8.00;2.08;;;3.00;99.90;;;;;;4961686;28;20047;-79
2024/01/28 02:53:24;;;;;;;8.65;1.35;;;2.50;99.90;;;;;;4952253;29;20111;-79
2024/01/28 02:55:56;;;;;;;5.30;1.48;;;2.50;99.90;;;;;;4967910;28;20122;-79
2024/01/28 02:58:26;;;;;;;7.80;0.93;;;2.50;99.90;;;;;;4953984;29;20048;-79
2024/01/28 03:00:55;;;;;;;6.47;1.55;;;2.30;99.90;;;;;;4950909;28;20027;-79
2024/01/28 03:03:24;;;;;;;6.22;1.52;;;1.90;99.90;;;;;;4965510;28;20058;-79
2024/01/28 03:05:52;;;;;;;5.05;1.42;;;2.50;99.90;;;;;;4954809;29;20043;-79
2024/01/28 03:08:21;;;;;;;5.53;1.33;;;3.10;99.90;;;;;;4948216;29;20055;-79
2024/01/28 03:10:49;;;;;;;5.47;1.60;;;2.50;99.90;;;;;;4950458;29;20052;-79
2024/01/28 03:13:18;;;;;;;11.38;2.00;;;2.40;99.90;;;;;;4964619;28;20055;-80
2024/01/28 03:15:50;;;;;;;7.03;1.60;;;2.40;99.90;;;;;;4947258;29;20067;-79
2024/01/28 03:18:19;;;;;;;8.23;1.65;;;2.80;99.90;;;;;;4967049;28;20068;-79
2024/01/28 03:20:48;;;;;;;5.53;1.40;;;2.50;99.90;;;;;;4951229;29;20020;-79
2024/01/28 03:23:16;;;;;;;8.13;1.63;;;2.40;99.90;;;;;;4950681;29;20043;-79
2024/01/28 03:25:44;;;;;;;4.35;1.25;;;2.50;99.90;;;;;;4947817;29;20040;-79
2024/01/28 03:28:13;;;;;;;4.35;1.20;;;2.40;99.90;;;;;;4952102;29;20447;-74
2024/01/28 03:30:41;;;;;;;7.10;1.33;;;2.40;99.90;;;;;;4946052;28;20051;-74
2024/01/28 03:33:11;;;;;;;9.25;1.30;;;2.40;99.90;;;;;;4935477;29;20549;-75
2024/01/28 03:35:39;;;;;;;5.97;1.27;;;2.40;99.90;;;;;;4931770;29;20083;-74
2024/01/28 03:38:08;;;;;;;7.55;1.33;;;2.40;99.90;;;;;;4930633;29;20435;-75
2024/01/28 03:40:36;;;;;;;8.23;1.88;;;2.30;99.90;;;;;;4946824;28;20042;-74
2024/01/28 03:43:05;;;;;;;10.07;2.90;;;2.30;99.90;;;;;;4931952;28;20454;-74
2024/01/28 03:45:33;;;;;;;13.90;3.78;;;2.30;99.90;;;;;;4950912;28;20039;-74
2024/01/28 03:48:02;;;;;;;10.48;4.85;;;2.20;99.90;;;;;;4945553;28;20137;-74
2024/01/28 03:50:32;;;;;;;12.30;4.22;;;2.20;99.90;;;;;;4931750;28;20059;-74
2024/01/28 03:53:00;;;;;;;14.95;4.43;;;2.20;99.90;;;;;;4932283;28;20458;-74
2024/01/28 03:55:28;;;;;;;13.77;3.63;;;2.20;99.90;;;;;;4948063;28;20055;-74
2024/01/28 03:57:57;;;;;;;14.60;3.88;;;2.20;99.90;;;;;;4929136;29;20054;-74
2024/01/28 04:00:28;;;;;;;15.02;3.83;;;2.20;99.90;;;;;;4929139;29;20047;-74
2024/01/28 04:02:58;;;;;;;11.25;4.25;;;2.10;99.90;;;;;;4947680;28;20043;-74
2024/01/28 04:05:26;;;;;;;11.45;4.20;;;2.10;99.90;;;;;;4948813;28;20101;-74
2024/01/28 04:07:56;;;;;;;22.17;5.20;;;2.20;99.90;;;;;;4946324;28;20062;-75
2024/01/28 04:10:24;;;;;;;14.02;3.45;;;2.30;99.90;;;;;;4948681;28;20047;-74
2024/01/28 04:12:53;;;;;;;10.32;2.47;;;2.20;99.90;;;;;;4935697;28;20459;-74
2024/01/28 04:15:20;;;;;;;9.32;2.50;;;2.20;99.90;;;;;;4949103;28;20051;-73
2024/01/28 04:17:49;;;;;;;12.38;2.47;;;2.20;99.90;;;;;;4952737;28;20052;-75
2024/01/28 04:20:18;;;;;;;9.98;2.75;;;2.20;99.90;;;;;;4947532;28;20407;-75
2024/01/28 04:22:46;;;;;;;8.25;2.33;;;2.20;99.90;;;;;;4942792;28;20406;-74
2024/01/28 04:25:18;;;;;;;6.82;2.22;;;2.10;99.90;;;;;;4937226;28;20040;-74
2024/01/28 04:27:46;;;;;;;12.90;2.25;;;2.10;99.90;;;;;;4952420;28;20534;-74
2024/01/28 04:30:15;;;;;;;14.27;2.83;;;2.10;99.90;;;;;;4949803;28;20039;-74
2024/01/28 04:32:44;;;;;;;7.43;2.30;;;2.10;99.90;;;;;;4935355;28;20067;-74
2024/01/28 04:35:13;;;;;;;4.68;1.60;;;2.00;99.90;;;;;;4953810;28;20047;-74
2024/01/28 04:37:41;;;;;;;8.52;2.58;;;2.00;99.90;;;;;;4946462;28;20111;-74
2024/01/28 04:40:11;;;;;;;8.38;2.28;;;2.10;99.90;;;;;;4957020;28;20047;-75
2024/01/28 04:42:41;;;;;;;6.45;1.95;;;2.00;99.90;;;;;;4937993;29;20055;-74
2024/01/28 04:45:11;;;;;;;7.38;1.50;;;1.90;99.90;;;;;;4957149;28;20064;-73
2024/01/28 04:47:40;;;;;;;5.28;1.65;;;1.90;99.90;;;;;;4936418;28;20102;-75
2024/01/28 04:50:09;;;;;;;6.72;1.83;;;1.80;99.90;;;;;;4955112;28;20047;-75
2024/01/28 04:52:37;;;;;;;6.03;2.00;;;1.80;99.90;;;;;;4953535;28;20038;-75
2024/01/28 04:55:06;;;;;;;4.55;1.52;;;1.80;99.90;;;;;;4939283;28;20451;-75
2024/01/28 04:57:35;;;;;;;7.93;1.50;;;1.80;99.90;;;;;;4955793;28;20078;-74
2024/01/28 05:00:10;;;;;;;12.23;2.85;;;2.00;99.90;;;;;;4950278;28;20051;-74
2024/01/28 05:02:38;;;;;;;9.48;2.17;;;1.80;99.90;;;;;;4946892;28;20052;-74
2024/01/28 05:05:07;;;;;;;5.28;1.52;;;1.80;99.90;;;;;;4953834;28;20141;-74
2024/01/28 05:07:36;;;;;;;6.85;1.83;;;1.80;99.90;;;;;;4957236;28;20044;-74
2024/01/28 05:10:05;;;;;;;7.47;1.88;;;1.90;99.90;;;;;;4955000;28;20495;-74
2024/01/28 05:12:34;;;;;;;11.48;2.72;;;1.90;99.90;;;;;;4949525;28;20114;-74
2024/01/28 05:15:04;;;;;;;8.23;1.85;;;1.90;99.90;;;;;;4936711;29;20670;-74
2024/01/28 05:17:33;;;;;;;9.75;2.28;;;2.00;99.90;;;;;;4936405;28;20049;-74
2024/01/28 05:20:02;;;;;;;19.67;5.43;;;2.00;99.90;;;;;;4953851;28;20130;-75
2024/01/28 05:22:31;;;;;;;50.60;15.18;;;1.90;99.90;;;;;;4951260;28;20110;-74
2024/01/28 05:25:02;;;;;;;43.83;14.85;;;1.90;99.90;;;;;;4930033;28;20058;-74
2024/01/28 05:27:31;;;;;;;46.10;14.30;;;1.80;99.90;;;;;;4932456;29;20063;-74
2024/01/28 05:29:59;;;;;;;42.75;14.60;;;1.80;99.90;;;;;;4930521;29;20127;-75
2024/01/28 05:32:30;;;;;;;14.93;4.90;;;1.80;99.90;;;;;;4939890;29;20966;-75
2024/01/28 05:35:01;;;;;;;14.57;3.95;;;1.70;99.90;;;;;;4945807;28;20051;-74
2024/01/28 05:37:30;;;;;;;8.48;3.50;;;1.70;99.90;;;;;;4947794;28;20134;-74
2024/01/28 05:39:58;;;;;;;12.23;4.00;;;1.70;99.90;;;;;;4930977;29;20063;-75
2024/01/28 05:42:27;;;;;;;8.13;3.35;;;1.70;99.90;;;;;;4931280;29;20103;-74
2024/01/28 05:44:55;;;;;;;11.48;3.75;;;1.60;99.90;;;;;;4942681;28;20040;-74
2024/01/28 05:47:24;;;;;;;8.13;2.92;;;1.60;99.90;;;;;;4925526;29;20075;-73
2024/01/28 05:49:54;;;;;;;9.18;2.65;;;1.50;99.90;;;;;;4942350;29;20043;-80
2024/01/28 05:52:22;;;;;;;9.82;3.53;;;1.50;99.90;;;;;;4948031;29;20043;-79
2024/01/28 05:54:51;;;;;;;10.70;3.35;;;1.50;99.90;;;;;;4946879;29;20072;-79
2024/01/28 05:57:20;;;;;;;11.38;3.53;;;1.50;99.90;;;;;;4960373;28;20060;-79
2024/01/28 05:59:49;;;;;;;9.27;3.30;;;1.40;99.90;;;;;;4948150;29;20046;-80
2024/01/28 06:02:21;;;;;;;9.45;3.55;;;1.40;99.90;;;;;;4947966;29;20071;-80
2024/01/28 06:04:50;;;;;;;13.25;5.35;;;1.30;99.90;;;;;;4948853;29;20063;-79
2024/01/28 06:07:19;;;;;;;14.40;5.15;;;1.30;99.90;;;;;;4951380;29;20054;-79
2024/01/28 06:09:48;;;;;;;10.88;4.88;;;1.20;99.90;;;;;;4957894;29;20048;-80
2024/01/28 06:12:18;;;;;;;10.95;4.88;;;1.30;99.90;;;;;;4949050;29;20043;-79
2024/01/28 06:14:47;;;;;;;16.50;4.80;;;1.20;99.90;;;;;;4948661;29;20052;-79
2024/01/28 06:17:16;;;;;;;13.95;5.68;;;1.30;99.90;;;;;;4962706;28;20058;-79
2024/01/28 06:19:45;;;;;;;12.15;4.82;;;2.40;99.90;;;;;;4945301;29;20071;-79
2024/01/28 06:22:16;;;;;;;13.98;5.07;;;1.20;99.90;;;;;;4941825;29;20033;-79
2024/01/28 06:24:46;;;;;;;13.10;5.03;;;1.60;99.90;;;;;;4946273;29;20107;-79
2024/01/28 06:27:15;;;;;;;13.82;5.43;;;1.10;99.90;;;;;;4940596;29;20115;-78
2024/01/28 06:29:46;;;;;;;14.52;4.75;;;0.10;99.90;;;;;;4950179;29;20047;-79
2024/01/28 06:32:15;;;;;;;14.30;5.30;;;1.00;99.90;;;;;;4943905;29;20048;-79
2024/01/28 06:34:44;;;;;;;15.88;5.28;;;1.00;99.90;;;;;;4942557;29;20569;-79
2024/01/28 06:37:13;;;;;;;17.73;6.00;;;1.10;99.90;;;;;;4940487;29;20055;-78
2024/01/28 06:39:42;;;;;;;16.00;5.53;;;0.70;99.90;;;;;;4935700;29;20043;-79
2024/01/28 06:42:12;;;;;;;17.77;6.82;;;1.00;99.90;;;;;;4941843;29;20046;-79
2024/01/28 06:44:40;;;;;;;13.30;5.40;;;1.00;99.90;;;;;;4936650;29;20052;-78
2024/01/28 06:47:09;;;;;;;14.27;4.50;;;0.90;99.90;;;;;;4942408;29;20066;-78
2024/01/28 06:49:38;;;;;;;16.50;5.32;;;1.40;99.90;;;;;;4938201;29;20066;-79
2024/01/28 06:52:07;;;;;;;17.58;6.07;;;1.30;99.90;;;;;;4941313;29;20048;-79
2024/01/28 06:54:35;;;;;;;16.65;6.13;;;1.10;99.90;;;;;;4942738;29;20059;-77
2024/01/28 06:57:04;;;;;;;21.77;7.40;;;1.00;99.90;;;;;;4952593;28;20040;-79
2024/01/28 06:59:34;;;;;;;19.52;6.57;;;1.10;99.90;;;;;;4933714;29;20038;-78
2024/01/28 07:02:03;;;;;;;22.85;7.13;;;1.20;99.90;;;;;;4945115;29;20051;-79
2024/01/28 07:04:36;;;;;;;22.73;8.25;;;1.10;99.90;;;;;;4961556;28;20056;-79
2024/01/28 07:07:05;;;;;;;28.33;8.10;;;1.20;99.90;;;;;;4950963;29;20044;-79
2024/01/28 07:09:40;;;;;;;20.00;7.80;;;0.40;99.90;;;;;;4961481;28;20035;-79
2024/01/28 07:12:09;;;;;;;27.70;8.63;;;1.20;99.90;;;;;;4952927;29;20020;-79
2024/01/28 07:14:39;;;;;;;23.15;7.80;;;1.30;99.90;;;;;;4952442;29;20050;-78
2024/01/28 07:17:08;;;;;;;25.40;8.23;;;0.20;99.90;;;;;;4962399;28;20039;-79
2024/01/28 07:19:40;;;;;;;36.78;11.02;;;1.50;99.90;;;;;;4963275;29;20078;-77
2024/01/28 07:22:11;;;;;;;30.38;10.93;;;2.70;99.90;;;;;;4966973;28;23123;-80
2024/01/28 07:24:44;;;;;;;35.92;12.65;;;1.20;99.90;;;;;;4953749;29;20044;-79
2024/01/28 07:27:13;;;;;;;38.30;14.10;;;1.30;99.90;;;;;;4967949;28;20068;-80
2024/01/28 07:29:44;;;;;;;41.05;13.65;;;1.60;99.90;;;;;;4966736;28;20064;-79
2024/01/28 07:32:16;;;;;;;36.15;11.93;;;1.70;99.90;;;;;;4961096;28;20067;-79
2024/01/28 07:34:45;;;;;;;34.72;12.50;;;1.80;99.90;;;;;;4948131;29;20032;-79
2024/01/28 07:37:15;;;;;;;34.78;11.55;;;1.80;99.90;;;;;;4952652;28;20036;-80
2024/01/28 07:39:44;;;;;;;33.55;11.57;;;1.80;99.90;;;;;;4954440;28;20044;-80
2024/01/28 07:42:13;;;;;;;28.17;10.20;;;1.90;99.90;;;;;;4947309;28;20039;-80
2024/01/28 07:44:44;;;;;;;38.30;12.25;;;2.30;99.90;;;;;;4954598;28;20036;-80
2024/01/28 07:47:15;;;;;;;40.85;17.67;;;2.00;99.90;;;;;;4961894;28;20649;-80
2024/01/28 07:49:45;;;;;;;34.97;14.38;;;2.10;99.90;;;;;;4952504;28;20035;-79
2024/01/28 07:52:14;;;;;;;31.23;11.95;;;1.00;99.90;;;;;;4953414;28;20054;-80
2024/01/28 07:54:46;;;;;;;21.40;9.77;;;2.30;99.90;;;;;;4971992;28;20108;-80
2024/01/28 07:57:15;;;;;;;21.87;10.03;;;2.30;99.90;;;;;;4955959;29;20028;-81
2024/01/28 07:59:45;;;;;;;25.65;9.95;;;2.20;99.90;;;;;;4961854;28;20019;-80
2024/01/28 08:02:15;;;;;;;25.50;9.38;;;2.40;99.90;;;;;;4954758;28;20104;-80
2024/01/28 08:04:47;;;;;;;35.55;16.42;;;2.50;99.90;;;;;;4958689;28;20040;-81
2024/01/28 08:59:24;;;;;;;10.35;3.15;;;4.40;99.90;;;;;;4712439;30;19954;-81
2024/01/28 09:06:44;;;;;;;10.55;2.40;;;4.60;99.90;;;;;;4626969;30;20054;-83
2024/01/28 09:09:37;;;;;;;11.13;3.90;;;5.80;99.90;;;;;;4669404;30;20069;-87
2024/01/28 09:12:33;;;;;;;8.90;3.70;;;4.80;99.90;;;;;;4689152;30;20038;-86
2024/01/28 09:16:38;;;;;;;8.00;2.83;;;4.90;99.90;;;;;;4663404;30;20072;-87
2024/01/28 09:19:58;;;;;;;6.00;2.17;;;6.00;99.90;;;;;;4681050;30;20202;-78
2024/01/28 09:22:28;;;;;;;7.95;2.72;;;5.10;99.90;;;;;;4695308;30;20073;-77
2024/01/28 09:24:57;;;;;;;7.88;2.35;;;5.30;99.90;;;;;;4733639;30;20056;-78
2024/01/28 09:27:27;;;;;;;6.32;1.88;;;5.20;99.90;;;;;;4770434;29;20445;-78
2024/01/28 09:29:58;;;;;;;8.73;2.40;;;5.20;99.90;;;;;;4859190;29;20597;-78
2024/01/28 09:32:27;;;;;;;8.00;2.88;;;5.20;99.90;;;;;;4853895;29;20046;-79
2024/01/28 09:34:56;;;;;;;7.95;2.50;;;5.30;99.90;;;;;;4852832;29;20469;-78
2024/01/28 09:37:30;;;;;;;6.65;1.90;;;5.40;99.90;;;;;;4858913;29;20080;-78
2024/01/28 09:40:03;;;;;;;6.05;2.05;;;5.40;99.90;;;;;;4891529;29;20063;-78
2024/01/28 09:42:37;;;;;;;12.07;2.85;;;5.50;99.90;;;;;;4889602;29;20148;-77
2024/01/28 09:45:08;;;;;;;4.03;2.03;;;5.50;99.90;;;;;;4867907;29;20052;-78
2024/01/28 09:47:40;;;;;;;9.60;2.20;;;5.50;99.90;;;;;;4875316;29;20161;-78
2024/01/28 09:50:14;;;;;;;13.23;4.65;;;5.50;99.90;;;;;;4889204;29;20100;-78
2024/01/28 09:52:43;;;;;;;8.53;2.60;;;5.60;99.90;;;;;;4887562;29;20044;-78
2024/01/28 09:55:13;;;;;;;6.60;2.40;;;5.80;99.90;;;;;;4923942;29;20048;-78
2024/01/28 09:57:42;;;;;;;5.95;1.98;;;5.70;99.90;;;;;;4926672;28;20051;-78
2024/01/28 10:00:12;;;;;;;6.15;2.53;;;5.80;99.90;;;;;;4947210;29;20059;-78
2024/01/28 10:02:41;;;;;;;6.30;2.60;;;5.80;99.90;;;;;;4963432;28;20047;-78
2024/01/28 10:05:14;;;;;;;11.77;3.25;;;5.80;99.90;;;;;;4961130;29;20051;-78
2024/01/28 10:07:47;;;;;;;7.50;2.78;;;5.90;99.90;;;;;;4946824;29;20055;-78
2024/01/28 10:10:18;;;;;;;6.60;2.45;;;6.00;99.90;;;;;;4945211;29;20454;-78
2024/01/28 10:12:49;;;;;;;9.55;3.70;;;6.00;99.90;;;;;;4960930;29;20550;-78
2024/01/28 10:15:20;;;;;;;7.18;2.30;;;6.10;99.90;;;;;;4944896;29;20047;-78
2024/01/28 10:17:49;;;;;;;11.73;3.00;;;7.40;99.90;;;;;;4940950;29;20571;-78
2024/01/28 10:20:20;;;;;;;10.68;2.45;;;6.20;99.90;;;;;;4941726;29;20103;-78
2024/01/28 10:22:53;;;;;;;6.75;2.42;;;6.30;99.90;;;;;;4915859;29;20531;-77
2024/01/28 10:25:23;;;;;;;9.25;2.13;;;6.50;99.90;;;;;;4930123;29;20143;-78
2024/01/28 10:27:53;;;;;;;6.60;2.35;;;6.40;99.90;;;;;;4919557;29;20461;-77
2024/01/28 10:30:23;;;;;;;7.07;2.53;;;6.50;99.90;;;;;;4925786;29;20055;-77
2024/01/28 10:32:51;;;;;;;7.95;2.63;;;6.30;99.90;;;;;;4925636;29;20048;-78
2024/01/28 10:35:26;;;;;;;7.50;2.40;;;6.50;99.90;;;;;;4910243;29;20044;-78
2024/01/28 10:37:59;;;;;;;7.28;2.42;;;6.60;99.90;;;;;;4939804;29;20062;-78
2024/01/28 10:40:34;;;;;;;9.38;2.67;;;6.60;99.90;;;;;;4929088;29;20052;-77
2024/01/28 10:43:03;;;;;;;11.38;2.38;;;6.60;99.90;;;;;;4923903;29;20043;-78
2024/01/28 10:45:34;;;;;;;7.50;2.83;;;6.60;99.90;;;;;;4939630;29;20079;-78
2024/01/28 10:48:09;;;;;;;8.63;3.38;;;6.70;99.90;;;;;;4924636;29;20051;-78
2024/01/28 10:50:41;;;;;;;10.10;2.00;;;6.70;99.90;;;;;;4939064;29;20091;-78
2024/01/28 10:53:12;;;;;;;6.15;1.88;;;6.70;99.90;;;;;;4920564;29;20055;-78
2024/01/28 10:55:43;;;;;;;6.07;1.65;;;6.90;99.90;;;;;;4931389;29;20610;-78
2024/01/28 10:58:17;;;;;;;4.97;1.30;;;6.90;98.60;;;;;;4930116;29;20052;-77
2024/01/28 11:00:46;;;;;;;6.20;2.83;;;7.10;98.60;;;;;;4917713;29;20526;-78
2024/01/28 11:03:18;;;;;;;4.40;1.85;;;7.20;97.90;;;;;;4925423;29;20047;-78
2024/01/28 11:05:50;;;;;;;7.47;2.00;;;7.00;96.40;;;;;;4909062;29;20439;-77
2024/01/28 11:08:20;;;;;;;4.60;1.85;;;7.20;97.50;;;;;;4934088;29;20422;-77
2024/01/28 11:10:52;;;;;;;7.68;2.67;;;7.30;97.20;;;;;;4931053;29;20044;-78
2024/01/28 11:13:21;;;;;;;6.45;2.30;;;7.20;97.50;;;;;;4925748;29;20199;-78
2024/01/28 11:15:50;;;;;;;10.32;3.60;;;7.40;96.60;;;;;;4908400;29;20048;-77
2024/01/28 11:18:31;;;;;;;8.68;3.53;;;7.30;96.30;;;;;;4923056;29;20206;-78
2024/01/28 11:21:19;;;;;;;;;;;7.40;97.10;;;;;;4913353;29;20044;-78
2024/01/28 11:23:49;;;;;;;9.35;2.72;;;7.20;96.10;;;;;;4932535;29;20296;-77
2024/01/28 11:26:20;;;;;;;5.32;1.90;;;7.30;95.90;;;;;;4957456;28;20392;-78
2024/01/28 11:28:50;;;;;;;10.02;3.20;;;7.30;95.40;;;;;;4948091;29;20067;-78
2024/01/28 11:31:21;;;;;;;5.18;2.13;;;7.40;96.00;;;;;;4933983;29;20055;-77
2024/01/28 11:33:53;;;;;;;6.07;2.40;;;7.50;96.40;;;;;;4930094;29;20075;-77
2024/01/28 11:36:28;;;;;;;7.65;2.30;;;7.60;95.70;;;;;;4931351;29;20071;-78
2024/01/28 11:39:05;;;;;;;4.50;1.80;;;7.50;96.20;;;;;;4927319;29;20051;-78
2024/01/28 11:41:39;;;;;;;7.25;2.17;;;7.50;95.00;;;;;;4940001;29;20510;-82
2024/01/28 11:44:09;;;;;;;4.40;2.08;;;7.40;94.20;;;;;;4962925;28;20103;-87
2024/01/28 11:46:39;;;;;;;9.52;2.15;;;7.20;94.30;;;;;;4941581;29;20043;-85
2024/01/28 11:49:10;;;;;;;8.65;1.80;;;7.30;94.90;;;;;;4947217;29;20031;-88
2024/01/28 11:51:39;;;;;;;6.32;1.70;;;7.80;94.50;;;;;;4954332;29;20119;-86
2024/01/28 11:54:09;;;;;;;7.00;1.85;;;7.60;94.30;;;;;;4953200;29;20033;-85
2024/01/28 11:56:44;;;;;;;6.85;2.17;;;7.70;94.00;;;;;;4905344;29;20048;-86
2024/01/28 11:59:13;;;;;;;6.07;1.63;;;6.90;93.00;;;;;;4902256;29;20132;-83
2024/01/28 12:01:42;;;;;;;3.65;1.70;;;6.60;94.20;;;;;;4902796;29;20056;-86
2024/01/28 12:04:11;;;;;;;6.95;1.65;;;7.70;93.60;;;;;;4913740;29;20075;-83
2024/01/28 12:06:40;;;;;;;4.88;1.55;;;7.70;93.90;;;;;;4911753;29;20087;-85
2024/01/28 12:09:10;;;;;;;5.60;1.40;;;7.80;93.80;;;;;;4909412;29;20507;-85
2024/01/28 12:11:40;;;;;;;6.25;1.90;;;7.80;94.20;;;;;;4907345;29;20063;-86
2024/01/28 12:14:10;;;;;;;5.80;1.88;;;7.80;93.40;;;;;;4910600;29;20103;-85
2024/01/28 12:16:39;;;;;;;5.80;2.08;;;7.70;93.20;;;;;;4932518;29;20066;-86
2024/01/28 12:19:13;;;;;;;6.15;1.83;;;7.60;93.30;;;;;;4932033;29;20029;-86
2024/01/28 12:21:43;;;;;;;8.80;2.17;;;7.70;93.80;;;;;;4918122;29;20121;-85
2024/01/28 12:24:14;;;;;;;7.47;2.60;;;7.60;93.20;;;;;;4917056;29;20114;-88
2024/01/28 12:26:47;;;;;;;5.85;2.20;;;7.60;93.40;;;;;;4917020;29;20082;-88
2024/01/28 12:29:17;;;;;;;5.57;1.98;;;7.60;93.80;;;;;;4962270;28;20074;-88
2024/01/28 12:31:46;;;;;;;5.50;2.28;;;7.70;92.90;;;;;;4962220;28;20040;-87
2024/01/28 12:38:01;;;;;;;7.78;2.00;;;7.60;93.50;;;;;;4866374;29;20053;-79
2024/01/28 12:40:30;;;;;;;6.35;2.25;;;7.50;92.60;;;;;;4859065;29;20132;-78
2024/01/28 12:43:00;;;;;;;5.63;2.10;;;7.50;92.40;;;;;;4926501;29;20094;-78
2024/01/28 12:45:30;;;;;;;6.35;2.33;;;7.40;92.90;;;;;;4941586;29;20143;-78
2024/01/28 12:47:59;;;;;;;15.10;5.47;;;7.50;93.50;;;;;;4949992;29;20084;-78
2024/01/28 12:50:32;;;;;;;10.45;4.38;;;7.50;93.50;;;;;;4938792;29;20044;-78
2024/01/28 12:53:06;;;;;;;8.40;2.95;;;7.60;93.60;;;;;;4944115;29;20111;-79
2024/01/28 12:55:37;;;;;;;6.40;2.13;;;7.70;93.50;;;;;;4934478;29;20063;-79
2024/01/28 12:58:07;;;;;;;8.32;2.47;;;7.70;93.30;;;;;;4950144;29;20079;-79
2024/01/28 13:00:36;;;;;;;8.45;3.10;;;7.60;93.70;;;;;;4941853;29;20452;-79
2024/01/28 13:03:07;;;;;;;20.13;7.10;;;7.60;93.20;;;;;;4936169;29;20440;-79
2024/01/28 13:05:37;;;;;;;9.05;4.00;;;7.50;93.90;;;;;;4942997;29;20052;-79
2024/01/28 13:08:06;;;;;;;10.98;3.00;;;7.60;93.40;;;;;;4935658;29;20454;-79
2024/01/28 13:10:35;;;;;;;7.65;2.08;;;7.50;92.90;;;;;;4942065;29;20444;-78
2024/01/28 13:13:08;;;;;;;7.68;2.22;;;7.50;93.30;;;;;;4938809;29;20044;-79
2024/01/28 13:15:38;;;;;;;6.63;2.17;;;7.50;93.20;;;;;;4941802;29;20067;-79
2024/01/28 13:18:08;;;;;;;6.47;2.00;;;7.50;93.50;;;;;;4939957;29;20047;-78
2024/01/28 13:20:57;;;;;;;8.10;2.30;;;7.50;93.50;;;;;;4952757;29;20487;-79
2024/01/28 13:23:26;;;;;;;5.30;1.95;;;7.70;93.60;;;;;;4942592;29;20048;-79
2024/01/28 13:25:55;;;;;;;7.15;3.15;;;7.50;92.90;;;;;;4937268;29;20051;-79
2024/01/28 13:28:29;;;;;;;7.72;3.10;;;7.50;93.40;;;;;;4961405;28;20056;-79
2024/01/28 13:31:01;;;;;;;7.05;2.75;;;7.50;93.30;;;;;;4949301;29;20051;-80
2024/01/28 13:33:33;;;;;;;8.40;2.65;;;7.40;93.10;;;;;;4958954;28;20110;-79
2024/01/28 13:36:02;;;;;;;7.72;2.78;;;7.50;92.80;;;;;;4945720;29;20054;-79
2024/01/28 13:38:38;;;;;;;5.85;2.05;;;7.40;93.50;;;;;;4930713;29;20056;-79
2024/01/28 13:41:07;;;;;;;6.95;2.67;;;7.50;94.10;;;;;;4949098;29;20059;-78
2024/01/28 13:43:40;;;;;;;8.10;3.25;;;6.30;94.30;;;;;;4959488;28;20046;-78
2024/01/28 13:46:10;;;;;;;5.53;2.10;;;7.40;94.30;;;;;;4947295;29;20463;-78
2024/01/28 13:48:38;;;;;;;4.20;1.58;;;7.40;94.50;;;;;;4945354;29;20058;-79
2024/01/28 13:51:10;;;;;;;5.50;2.05;;;7.40;95.00;;;;;;4957218;29;20486;-79
2024/01/28 13:53:39;;;;;;;5.88;1.77;;;7.40;94.80;;;;;;4962991;29;20102;-79
2024/01/28 13:56:08;;;;;;;6.68;1.88;;;7.40;94.40;;;;;;4961218;29;20047;-79
2024/01/28 13:58:41;;;;;;;3.75;1.70;;;7.30;94.90;;;;;;4966661;28;20043;-78
2024/01/28 14:01:09;;;;;;;6.80;1.45;;;7.30;95.20;;;;;;4969272;28;20050;-81
2024/01/28 14:03:38;;;;;;;6.15;2.30;;;7.30;94.80;;;;;;4973047;28;20049;-81
2024/01/28 14:06:08;;;;;;;5.43;1.85;;;7.20;95.00;;;;;;4972741;28;20151;-82
2024/01/28 14:08:38;;;;;;;5.93;2.10;;;7.30;95.40;;;;;;4980392;28;20059;-81
2024/01/28 14:11:14;;;;;;;5.32;1.90;;;7.20;95.60;;;;;;4969163;28;20507;-80